sensor_id;sensor_type;location;lat;lon;timestamp;P1;durP1;ratioP1;P2;durP2;ratioP2
60344;SDS011;46188;52.324;8.032;2023-08-08T00:02:11;3.63;;;2.90;;
60344;SDS011;46188;52.324;8.032;2023-08-08T00:04:36;3.83;;;2.55;;
60344;SDS011;46188;52.324;8.032;2023-08-08T00:07:01;5.32;;;2.90;;
60344;SDS011;46188;52.324;8.032;2023-08-08T00:09:27;5.28;;;3.28;;
60344;SDS011;46188;52.324;8.032;2023-08-08T00:11:52;5.80;;;3.15;;
60344;SDS011;46188;52.324;8.032;2023-08-08T00:14:18;4.18;;;3.10;;
60344;SDS011;46188;52.324;8.032;2023-08-08T00:16:43;3.47;;;3.03;;
60344;SDS011;46188;52.324;8.032;2023-08-08T00:19:08;5.55;;;3.10;;
60344;SDS011;46188;52.324;8.032;2023-08-08T00:21:33;3.63;;;2.97;;
60344;SDS011;46188;52.324;8.032;2023-08-08T00:23:59;5.50;;;3.22;;
60344;SDS011;46188;52.324;8.032;2023-08-08T00:26:24;6.05;;;3.30;;
60344;SDS011;46188;52.324;8.032;2023-08-08T00:28:49;3.70;;;2.95;;
60344;SDS011;46188;52.324;8.032;2023-08-08T00:31:14;4.03;;;3.30;;
60344;SDS011;46188;52.324;8.032;2023-08-08T00:33:42;5.57;;;3.05;;
60344;SDS011;46188;52.324;8.032;2023-08-08T00:36:07;5.47;;;3.08;;
60344;SDS011;46188;52.324;8.032;2023-08-08T00:38:33;7.57;;;3.17;;
60344;SDS011;46188;52.324;8.032;2023-08-08T00:40:58;7.43;;;3.20;;
60344;SDS011;46188;52.324;8.032;2023-08-08T00:43:23;4.35;;;3.30;;
60344;SDS011;46188;52.324;8.032;2023-08-08T00:45:48;4.47;;;3.50;;
60344;SDS011;46188;52.324;8.032;2023-08-08T00:48:14;3.88;;;2.95;;
60344;SDS011;46188;52.324;8.032;2023-08-08T00:50:41;4.20;;;3.10;;
60344;SDS011;46188;52.324;8.032;2023-08-08T00:53:07;6.43;;;3.40;;
60344;SDS011;46188;52.324;8.032;2023-08-08T00:55:32;4.43;;;3.40;;
60344;SDS011;46188;52.324;8.032;2023-08-08T00:57:58;4.30;;;3.42;;
60344;SDS011;46188;52.324;8.032;2023-08-08T01:00:24;5.97;;;3.25;;
60344;SDS011;46188;52.324;8.032;2023-08-08T01:02:49;6.68;;;3.50;;
60344;SDS011;46188;52.324;8.032;2023-08-08T01:05:14;5.68;;;3.70;;
60344;SDS011;46188;52.324;8.032;2023-08-08T01:10:28;4.32;;;3.10;;
60344;SDS011;46188;52.324;8.032;2023-08-08T01:12:59;4.38;;;3.38;;
60344;SDS011;46188;52.324;8.032;2023-08-08T01:15:27;6.82;;;3.50;;
60344;SDS011;46188;52.324;8.032;2023-08-08T01:17:57;5.47;;;3.40;;
60344;SDS011;46188;52.324;8.032;2023-08-08T01:20:22;6.40;;;3.90;;
60344;SDS011;46188;52.324;8.032;2023-08-08T01:25:22;6.05;;;3.40;;
60344;SDS011;46188;52.324;8.032;2023-08-08T01:27:48;6.72;;;3.65;;
60344;SDS011;46188;52.324;8.032;2023-08-08T01:30:13;6.85;;;3.63;;
60344;SDS011;46188;52.324;8.032;2023-08-08T01:32:38;3.90;;;3.47;;
60344;SDS011;46188;52.324;8.032;2023-08-08T01:35:04;5.28;;;3.40;;
60344;SDS011;46188;52.324;8.032;2023-08-08T01:37:32;6.18;;;3.40;;
60344;SDS011;46188;52.324;8.032;2023-08-08T01:42:31;6.53;;;3.85;;
60344;SDS011;46188;52.324;8.032;2023-08-08T01:44:57;5.40;;;3.45;;
60344;SDS011;46188;52.324;8.032;2023-08-08T01:47:22;4.78;;;3.47;;
60344;SDS011;46188;52.324;8.032;2023-08-08T01:49:48;5.38;;;3.67;;
60344;SDS011;46188;52.324;8.032;2023-08-08T01:52:13;4.13;;;3.47;;
60344;SDS011;46188;52.324;8.032;2023-08-08T01:54:38;4.75;;;3.78;;
60344;SDS011;46188;52.324;8.032;2023-08-08T01:57:04;6.13;;;3.72;;
60344;SDS011;46188;52.324;8.032;2023-08-08T01:59:29;6.25;;;3.45;;
60344;SDS011;46188;52.324;8.032;2023-08-08T02:01:55;5.15;;;3.90;;
60344;SDS011;46188;52.324;8.032;2023-08-08T02:04:20;4.93;;;3.65;;
60344;SDS011;46188;52.324;8.032;2023-08-08T02:06:45;5.53;;;3.50;;
60344;SDS011;46188;52.324;8.032;2023-08-08T02:09:10;6.35;;;3.35;;
60344;SDS011;46188;52.324;8.032;2023-08-08T02:11:36;3.75;;;3.35;;
60344;SDS011;46188;52.324;8.032;2023-08-08T02:14:01;6.22;;;3.75;;
60344;SDS011;46188;52.324;8.032;2023-08-08T02:16:26;4.10;;;3.10;;
60344;SDS011;46188;52.324;8.032;2023-08-08T02:18:51;5.00;;;3.30;;
60344;SDS011;46188;52.324;8.032;2023-08-08T02:21:16;4.90;;;3.25;;
60344;SDS011;46188;52.324;8.032;2023-08-08T02:23:42;3.83;;;3.45;;
60344;SDS011;46188;52.324;8.032;2023-08-08T02:26:07;5.18;;;3.17;;
60344;SDS011;46188;52.324;8.032;2023-08-08T02:28:32;6.65;;;3.00;;
60344;SDS011;46188;52.324;8.032;2023-08-08T02:30:58;5.75;;;3.22;;
60344;SDS011;46188;52.324;8.032;2023-08-08T02:33:23;6.10;;;3.80;;
60344;SDS011;46188;52.324;8.032;2023-08-08T02:35:48;7.63;;;3.30;;
60344;SDS011;46188;52.324;8.032;2023-08-08T02:38:13;5.82;;;3.67;;
60344;SDS011;46188;52.324;8.032;2023-08-08T02:40:39;4.78;;;3.33;;
60344;SDS011;46188;52.324;8.032;2023-08-08T02:43:04;5.97;;;3.15;;
60344;SDS011;46188;52.324;8.032;2023-08-08T02:45:30;5.15;;;3.47;;
60344;SDS011;46188;52.324;8.032;2023-08-08T02:47:55;4.78;;;3.28;;
60344;SDS011;46188;52.324;8.032;2023-08-08T02:50:20;4.95;;;3.40;;
60344;SDS011;46188;52.324;8.032;2023-08-08T02:52:45;5.53;;;3.30;;
60344;SDS011;46188;52.324;8.032;2023-08-08T02:55:11;8.10;;;3.67;;
60344;SDS011;46188;52.324;8.032;2023-08-08T02:57:36;5.53;;;3.33;;
60344;SDS011;46188;52.324;8.032;2023-08-08T03:00:01;5.03;;;3.40;;
60344;SDS011;46188;52.324;8.032;2023-08-08T03:02:28;7.85;;;3.80;;
60344;SDS011;46188;52.324;8.032;2023-08-08T03:04:54;5.80;;;3.50;;
60344;SDS011;46188;52.324;8.032;2023-08-08T03:07:19;6.55;;;3.50;;
60344;SDS011;46188;52.324;8.032;2023-08-08T03:09:44;3.60;;;3.28;;
60344;SDS011;46188;52.324;8.032;2023-08-08T03:12:10;6.55;;;3.53;;
60344;SDS011;46188;52.324;8.032;2023-08-08T03:14:35;6.30;;;3.60;;
60344;SDS011;46188;52.324;8.032;2023-08-08T03:17:00;5.60;;;3.97;;
60344;SDS011;46188;52.324;8.032;2023-08-08T03:19:25;6.18;;;4.28;;
60344;SDS011;46188;52.324;8.032;2023-08-08T03:21:51;4.85;;;3.67;;
60344;SDS011;46188;52.324;8.032;2023-08-08T03:24:16;5.55;;;4.10;;
60344;SDS011;46188;52.324;8.032;2023-08-08T03:26:42;6.78;;;4.07;;
60344;SDS011;46188;52.324;8.032;2023-08-08T03:29:07;5.28;;;4.10;;
60344;SDS011;46188;52.324;8.032;2023-08-08T03:31:35;7.70;;;4.90;;
60344;SDS011;46188;52.324;8.032;2023-08-08T03:34:00;7.57;;;4.57;;
60344;SDS011;46188;52.324;8.032;2023-08-08T03:36:25;6.68;;;4.32;;
60344;SDS011;46188;52.324;8.032;2023-08-08T03:38:51;10.15;;;5.05;;
60344;SDS011;46188;52.324;8.032;2023-08-08T03:41:16;6.75;;;4.88;;
60344;SDS011;46188;52.324;8.032;2023-08-08T03:43:41;7.28;;;5.03;;
60344;SDS011;46188;52.324;8.032;2023-08-08T03:46:06;7.32;;;4.75;;
60344;SDS011;46188;52.324;8.032;2023-08-08T03:48:32;8.55;;;5.00;;
60344;SDS011;46188;52.324;8.032;2023-08-08T03:50:57;5.75;;;4.25;;
60344;SDS011;46188;52.324;8.032;2023-08-08T03:53:22;8.75;;;5.72;;
60344;SDS011;46188;52.324;8.032;2023-08-08T03:55:48;12.07;;;5.55;;
60344;SDS011;46188;52.324;8.032;2023-08-08T03:58:13;8.30;;;5.13;;
60344;SDS011;46188;52.324;8.032;2023-08-08T04:00:38;7.72;;;4.97;;
60344;SDS011;46188;52.324;8.032;2023-08-08T04:03:10;5.53;;;5.00;;
60344;SDS011;46188;52.324;8.032;2023-08-08T04:05:36;10.20;;;5.07;;
60344;SDS011;46188;52.324;8.032;2023-08-08T04:08:01;9.55;;;4.90;;
60344;SDS011;46188;52.324;8.032;2023-08-08T04:10:26;9.45;;;4.80;;
60344;SDS011;46188;52.324;8.032;2023-08-08T04:12:51;7.50;;;4.38;;
60344;SDS011;46188;52.324;8.032;2023-08-08T04:15:17;9.95;;;4.85;;
60344;SDS011;46188;52.324;8.032;2023-08-08T04:17:42;7.45;;;4.68;;
60344;SDS011;46188;52.324;8.032;2023-08-08T04:20:07;9.25;;;4.75;;
60344;SDS011;46188;52.324;8.032;2023-08-08T04:22:34;12.07;;;5.50;;
60344;SDS011;46188;52.324;8.032;2023-08-08T04:25:00;11.40;;;5.15;;
60344;SDS011;46188;52.324;8.032;2023-08-08T04:27:25;8.20;;;5.40;;
60344;SDS011;46188;52.324;8.032;2023-08-08T04:29:51;8.73;;;5.00;;
60344;SDS011;46188;52.324;8.032;2023-08-08T04:32:16;7.25;;;5.63;;
60344;SDS011;46188;52.324;8.032;2023-08-08T04:34:41;9.30;;;5.22;;
60344;SDS011;46188;52.324;8.032;2023-08-08T04:37:06;7.10;;;5.47;;
60344;SDS011;46188;52.324;8.032;2023-08-08T04:39:32;11.10;;;6.10;;
60344;SDS011;46188;52.324;8.032;2023-08-08T04:41:57;9.13;;;6.78;;
60344;SDS011;46188;52.324;8.032;2023-08-08T04:44:22;9.20;;;5.95;;
60344;SDS011;46188;52.324;8.032;2023-08-08T04:46:48;11.27;;;6.60;;
60344;SDS011;46188;52.324;8.032;2023-08-08T04:49:13;8.95;;;6.00;;
60344;SDS011;46188;52.324;8.032;2023-08-08T04:51:38;8.48;;;6.03;;
60344;SDS011;46188;52.324;8.032;2023-08-08T04:54:03;8.73;;;4.95;;
60344;SDS011;46188;52.324;8.032;2023-08-08T04:56:29;9.52;;;5.75;;
60344;SDS011;46188;52.324;8.032;2023-08-08T04:58:54;9.00;;;5.40;;
60344;SDS011;46188;52.324;8.032;2023-08-08T05:01:19;11.02;;;5.68;;
60344;SDS011;46188;52.324;8.032;2023-08-08T05:03:45;11.55;;;5.50;;
60344;SDS011;46188;52.324;8.032;2023-08-08T05:06:11;10.55;;;5.60;;
60344;SDS011;46188;52.324;8.032;2023-08-08T05:08:36;8.63;;;5.43;;
60344;SDS011;46188;52.324;8.032;2023-08-08T05:11:01;10.00;;;5.40;;
60344;SDS011;46188;52.324;8.032;2023-08-08T05:13:26;12.00;;;5.70;;
60344;SDS011;46188;52.324;8.032;2023-08-08T05:15:52;7.32;;;5.07;;
60344;SDS011;46188;52.324;8.032;2023-08-08T05:18:17;9.70;;;5.00;;
60344;SDS011;46188;52.324;8.032;2023-08-08T05:20:42;12.43;;;5.38;;
60344;SDS011;46188;52.324;8.032;2023-08-08T05:23:08;8.45;;;4.97;;
60344;SDS011;46188;52.324;8.032;2023-08-08T05:25:33;8.68;;;4.90;;
60344;SDS011;46188;52.324;8.032;2023-08-08T05:27:58;9.52;;;5.03;;
60344;SDS011;46188;52.324;8.032;2023-08-08T05:30:23;9.40;;;5.18;;
60344;SDS011;46188;52.324;8.032;2023-08-08T05:32:49;9.05;;;4.85;;
60344;SDS011;46188;52.324;8.032;2023-08-08T05:35:14;8.52;;;4.85;;
60344;SDS011;46188;52.324;8.032;2023-08-08T05:37:39;9.48;;;5.40;;
60344;SDS011;46188;52.324;8.032;2023-08-08T05:40:05;11.30;;;6.50;;
60344;SDS011;46188;52.324;8.032;2023-08-08T05:42:31;10.27;;;5.55;;
60344;SDS011;46188;52.324;8.032;2023-08-08T05:44:57;9.75;;;5.32;;
60344;SDS011;46188;52.324;8.032;2023-08-08T05:47:22;10.18;;;4.70;;
60344;SDS011;46188;52.324;8.032;2023-08-08T05:49:47;11.93;;;5.50;;
60344;SDS011;46188;52.324;8.032;2023-08-08T05:52:13;9.18;;;5.07;;
60344;SDS011;46188;52.324;8.032;2023-08-08T05:54:38;8.30;;;4.65;;
60344;SDS011;46188;52.324;8.032;2023-08-08T05:57:03;10.02;;;4.88;;
60344;SDS011;46188;52.324;8.032;2023-08-08T05:59:29;11.55;;;4.68;;
60344;SDS011;46188;52.324;8.032;2023-08-08T06:01:54;10.18;;;4.55;;
60344;SDS011;46188;52.324;8.032;2023-08-08T06:04:20;9.35;;;4.88;;
60344;SDS011;46188;52.324;8.032;2023-08-08T06:06:45;12.38;;;5.53;;
60344;SDS011;46188;52.324;8.032;2023-08-08T06:09:13;9.75;;;4.68;;
60344;SDS011;46188;52.324;8.032;2023-08-08T06:11:39;12.68;;;4.90;;
60344;SDS011;46188;52.324;8.032;2023-08-08T06:14:04;9.80;;;4.95;;
60344;SDS011;46188;52.324;8.032;2023-08-08T06:16:29;8.43;;;5.05;;
60344;SDS011;46188;52.324;8.032;2023-08-08T06:18:54;7.18;;;3.95;;
60344;SDS011;46188;52.324;8.032;2023-08-08T06:21:20;7.25;;;4.25;;
60344;SDS011;46188;52.324;8.032;2023-08-08T06:23:45;11.85;;;4.95;;
60344;SDS011;46188;52.324;8.032;2023-08-08T06:26:11;7.75;;;4.57;;
60344;SDS011;46188;52.324;8.032;2023-08-08T06:28:36;10.98;;;4.53;;
60344;SDS011;46188;52.324;8.032;2023-08-08T06:31:01;8.70;;;4.10;;
60344;SDS011;46188;52.324;8.032;2023-08-08T06:33:27;6.07;;;3.70;;
60344;SDS011;46188;52.324;8.032;2023-08-08T06:35:53;7.65;;;4.20;;
60344;SDS011;46188;52.324;8.032;2023-08-08T06:38:19;8.23;;;4.20;;
60344;SDS011;46188;52.324;8.032;2023-08-08T06:40:44;8.85;;;3.72;;
60344;SDS011;46188;52.324;8.032;2023-08-08T06:43:09;14.57;;;4.15;;
60344;SDS011;46188;52.324;8.032;2023-08-08T06:45:35;6.25;;;3.95;;
60344;SDS011;46188;52.324;8.032;2023-08-08T06:48:01;5.90;;;3.60;;
60344;SDS011;46188;52.324;8.032;2023-08-08T06:50:26;8.20;;;3.40;;
60344;SDS011;46188;52.324;8.032;2023-08-08T06:52:51;5.55;;;3.20;;
60344;SDS011;46188;52.324;8.032;2023-08-08T06:55:16;9.05;;;3.60;;
60344;SDS011;46188;52.324;8.032;2023-08-08T06:57:42;6.97;;;3.22;;
60344;SDS011;46188;52.324;8.032;2023-08-08T07:00:07;7.20;;;3.42;;
60344;SDS011;46188;52.324;8.032;2023-08-08T07:02:34;6.93;;;3.17;;
60344;SDS011;46188;52.324;8.032;2023-08-08T07:04:59;10.50;;;4.03;;
60344;SDS011;46188;52.324;8.032;2023-08-08T07:07:25;9.85;;;3.30;;
60344;SDS011;46188;52.324;8.032;2023-08-08T07:09:50;6.53;;;3.08;;
60344;SDS011;46188;52.324;8.032;2023-08-08T07:12:15;9.38;;;3.13;;
60344;SDS011;46188;52.324;8.032;2023-08-08T07:14:41;8.60;;;3.22;;
60344;SDS011;46188;52.324;8.032;2023-08-08T07:17:06;7.50;;;3.63;;
60344;SDS011;46188;52.324;8.032;2023-08-08T07:19:31;9.35;;;3.17;;
60344;SDS011;46188;52.324;8.032;2023-08-08T07:21:57;11.02;;;3.75;;
60344;SDS011;46188;52.324;8.032;2023-08-08T07:24:22;7.93;;;3.65;;
60344;SDS011;46188;52.324;8.032;2023-08-08T07:26:51;10.43;;;3.58;;
60344;SDS011;46188;52.324;8.032;2023-08-08T07:29:16;7.15;;;2.95;;
60344;SDS011;46188;52.324;8.032;2023-08-08T07:31:42;6.55;;;3.00;;
60344;SDS011;46188;52.324;8.032;2023-08-08T07:34:07;5.30;;;2.88;;
60344;SDS011;46188;52.324;8.032;2023-08-08T07:36:32;8.77;;;3.13;;
60344;SDS011;46188;52.324;8.032;2023-08-08T07:38:58;11.05;;;2.88;;
60344;SDS011;46188;52.324;8.032;2023-08-08T07:41:25;7.40;;;3.45;;
60344;SDS011;46188;52.324;8.032;2023-08-08T07:43:51;7.60;;;2.80;;
60344;SDS011;46188;52.324;8.032;2023-08-08T07:46:16;5.75;;;2.90;;
60344;SDS011;46188;52.324;8.032;2023-08-08T07:48:42;18.52;;;4.68;;
60344;SDS011;46188;52.324;8.032;2023-08-08T07:51:07;8.90;;;2.83;;
60344;SDS011;46188;52.324;8.032;2023-08-08T07:53:32;3.97;;;2.10;;
60344;SDS011;46188;52.324;8.032;2023-08-08T07:55:57;8.02;;;2.22;;
60344;SDS011;46188;52.324;8.032;2023-08-08T07:58:23;4.50;;;2.10;;
60344;SDS011;46188;52.324;8.032;2023-08-08T08:00:50;3.08;;;1.67;;
60344;SDS011;46188;52.324;8.032;2023-08-08T08:03:17;4.70;;;1.80;;
60344;SDS011;46188;52.324;8.032;2023-08-08T08:05:42;4.30;;;1.70;;
60344;SDS011;46188;52.324;8.032;2023-08-08T08:08:07;5.40;;;1.90;;
60344;SDS011;46188;52.324;8.032;2023-08-08T08:10:33;5.63;;;2.28;;
60344;SDS011;46188;52.324;8.032;2023-08-08T08:12:58;3.63;;;1.65;;
60344;SDS011;46188;52.324;8.032;2023-08-08T08:15:24;6.20;;;1.83;;
60344;SDS011;46188;52.324;8.032;2023-08-08T08:17:50;6.32;;;1.70;;
60344;SDS011;46188;52.324;8.032;2023-08-08T08:20:15;6.55;;;2.08;;
60344;SDS011;46188;52.324;8.032;2023-08-08T08:22:41;4.55;;;1.50;;
60344;SDS011;46188;52.324;8.032;2023-08-08T08:25:06;3.83;;;1.50;;
60344;SDS011;46188;52.324;8.032;2023-08-08T08:27:33;3.63;;;1.60;;
60344;SDS011;46188;52.324;8.032;2023-08-08T08:29:58;4.47;;;1.58;;
60344;SDS011;46188;52.324;8.032;2023-08-08T08:32:24;4.72;;;1.20;;
60344;SDS011;46188;52.324;8.032;2023-08-08T08:34:49;4.65;;;1.60;;
60344;SDS011;46188;52.324;8.032;2023-08-08T08:37:14;6.60;;;1.42;;
60344;SDS011;46188;52.324;8.032;2023-08-08T08:39:39;3.67;;;1.67;;
60344;SDS011;46188;52.324;8.032;2023-08-08T08:42:05;3.47;;;1.20;;
60344;SDS011;46188;52.324;8.032;2023-08-08T08:44:31;6.88;;;1.50;;
60344;SDS011;46188;52.324;8.032;2023-08-08T08:47:03;7.55;;;1.52;;
60344;SDS011;46188;52.324;8.032;2023-08-08T08:49:30;4.40;;;1.60;;
60344;SDS011;46188;52.324;8.032;2023-08-08T08:51:57;9.40;;;1.52;;
60344;SDS011;46188;52.324;8.032;2023-08-08T08:54:25;4.63;;;1.10;;
60344;SDS011;46188;52.324;8.032;2023-08-08T08:56:52;2.83;;;1.05;;
60344;SDS011;46188;52.324;8.032;2023-08-08T08:59:17;4.75;;;1.30;;
60344;SDS011;46188;52.324;8.032;2023-08-08T09:01:43;4.57;;;1.30;;
60344;SDS011;46188;52.324;8.032;2023-08-08T09:04:08;3.80;;;1.33;;
60344;SDS011;46188;52.324;8.032;2023-08-08T09:06:34;3.70;;;1.38;;
60344;SDS011;46188;52.324;8.032;2023-08-08T09:09:00;5.93;;;1.10;;
60344;SDS011;46188;52.324;8.032;2023-08-08T09:11:25;3.80;;;1.23;;
60344;SDS011;46188;52.324;8.032;2023-08-08T09:13:51;2.35;;;1.00;;
60344;SDS011;46188;52.324;8.032;2023-08-08T09:16:16;6.32;;;1.63;;
60344;SDS011;46188;52.324;8.032;2023-08-08T09:18:41;8.57;;;1.30;;
60344;SDS011;46188;52.324;8.032;2023-08-08T09:21:07;4.28;;;1.40;;
60344;SDS011;46188;52.324;8.032;2023-08-08T09:23:33;4.88;;;1.10;;
60344;SDS011;46188;52.324;8.032;2023-08-08T09:25:58;3.30;;;1.30;;
60344;SDS011;46188;52.324;8.032;2023-08-08T09:28:23;6.32;;;1.48;;
60344;SDS011;46188;52.324;8.032;2023-08-08T09:30:49;4.28;;;1.42;;
60344;SDS011;46188;52.324;8.032;2023-08-08T09:33:14;6.55;;;1.45;;
60344;SDS011;46188;52.324;8.032;2023-08-08T09:35:40;4.40;;;1.02;;
60344;SDS011;46188;52.324;8.032;2023-08-08T09:38:06;3.50;;;1.10;;
60344;SDS011;46188;52.324;8.032;2023-08-08T09:40:32;6.88;;;1.30;;
60344;SDS011;46188;52.324;8.032;2023-08-08T09:42:57;4.07;;;1.42;;
60344;SDS011;46188;52.324;8.032;2023-08-08T09:45:26;6.20;;;1.30;;
60344;SDS011;46188;52.324;8.032;2023-08-08T09:47:51;2.65;;;1.33;;
60344;SDS011;46188;52.324;8.032;2023-08-08T09:50:19;3.13;;;1.25;;
60344;SDS011;46188;52.324;8.032;2023-08-08T09:52:45;5.93;;;1.17;;
60344;SDS011;46188;52.324;8.032;2023-08-08T09:55:11;5.22;;;1.42;;
60344;SDS011;46188;52.324;8.032;2023-08-08T09:57:38;6.13;;;1.45;;
60344;SDS011;46188;52.324;8.032;2023-08-08T10:00:04;3.50;;;1.17;;
60344;SDS011;46188;52.324;8.032;2023-08-08T10:02:30;4.60;;;2.42;;
60344;SDS011;46188;52.324;8.032;2023-08-08T10:04:57;2.35;;;1.00;;
60344;SDS011;46188;52.324;8.032;2023-08-08T10:07:23;2.92;;;1.10;;
60344;SDS011;46188;52.324;8.032;2023-08-08T10:09:48;3.38;;;1.20;;
60344;SDS011;46188;52.324;8.032;2023-08-08T10:12:14;5.85;;;1.23;;
60344;SDS011;46188;52.324;8.032;2023-08-08T10:14:41;3.35;;;1.13;;
60344;SDS011;46188;52.324;8.032;2023-08-08T10:17:07;3.97;;;1.38;;
60344;SDS011;46188;52.324;8.032;2023-08-08T10:19:33;6.53;;;2.35;;
60344;SDS011;46188;52.324;8.032;2023-08-08T10:22:03;4.30;;;1.17;;
60344;SDS011;46188;52.324;8.032;2023-08-08T10:24:34;2.15;;;1.05;;
60344;SDS011;46188;52.324;8.032;2023-08-08T10:27:02;4.40;;;1.38;;
60344;SDS011;46188;52.324;8.032;2023-08-08T10:29:30;5.13;;;1.17;;
60344;SDS011;46188;52.324;8.032;2023-08-08T10:32:00;2.95;;;0.90;;
60344;SDS011;46188;52.324;8.032;2023-08-08T10:34:37;5.18;;;1.15;;
60344;SDS011;46188;52.324;8.032;2023-08-08T10:37:12;3.92;;;1.10;;
60344;SDS011;46188;52.324;8.032;2023-08-08T10:39:48;4.25;;;1.38;;
60344;SDS011;46188;52.324;8.032;2023-08-08T10:42:17;3.15;;;0.93;;
60344;SDS011;46188;52.324;8.032;2023-08-08T10:44:43;4.35;;;1.00;;
60344;SDS011;46188;52.324;8.032;2023-08-08T10:47:10;5.63;;;1.23;;
60344;SDS011;46188;52.324;8.032;2023-08-08T10:49:36;2.58;;;0.85;;
60344;SDS011;46188;52.324;8.032;2023-08-08T10:52:02;5.18;;;1.10;;
60344;SDS011;46188;52.324;8.032;2023-08-08T10:54:28;3.15;;;0.90;;
60344;SDS011;46188;52.324;8.032;2023-08-08T10:56:56;3.38;;;1.48;;
60344;SDS011;46188;52.324;8.032;2023-08-08T10:59:26;2.90;;;1.00;;
60344;SDS011;46188;52.324;8.032;2023-08-08T11:02:00;2.85;;;1.10;;
60344;SDS011;46188;52.324;8.032;2023-08-08T11:04:26;4.40;;;1.20;;
60344;SDS011;46188;52.324;8.032;2023-08-08T11:06:55;7.53;;;1.58;;
60344;SDS011;46188;52.324;8.032;2023-08-08T11:09:21;2.53;;;1.00;;
60344;SDS011;46188;52.324;8.032;2023-08-08T11:11:46;2.60;;;0.95;;
60344;SDS011;46188;52.324;8.032;2023-08-08T11:16:40;6.15;;;0.98;;
60344;SDS011;46188;52.324;8.032;2023-08-08T11:19:06;3.58;;;0.90;;
60344;SDS011;46188;52.324;8.032;2023-08-08T11:21:35;3.78;;;0.95;;
60344;SDS011;46188;52.324;8.032;2023-08-08T11:24:05;4.47;;;0.93;;
60344;SDS011;46188;52.324;8.032;2023-08-08T11:26:32;4.97;;;0.90;;
60344;SDS011;46188;52.324;8.032;2023-08-08T11:28:59;4.20;;;1.00;;
60344;SDS011;46188;52.324;8.032;2023-08-08T11:31:25;2.53;;;0.95;;
60344;SDS011;46188;52.324;8.032;2023-08-08T11:33:52;5.13;;;1.15;;
60344;SDS011;46188;52.324;8.032;2023-08-08T11:36:18;3.58;;;1.13;;
60344;SDS011;46188;52.324;8.032;2023-08-08T11:38:44;3.35;;;0.90;;
60344;SDS011;46188;52.324;8.032;2023-08-08T11:41:13;2.95;;;1.00;;
60344;SDS011;46188;52.324;8.032;2023-08-08T11:43:39;4.10;;;0.98;;
60344;SDS011;46188;52.324;8.032;2023-08-08T11:46:09;6.28;;;0.95;;
60344;SDS011;46188;52.324;8.032;2023-08-08T11:48:37;3.05;;;1.00;;
60344;SDS011;46188;52.324;8.032;2023-08-08T11:51:05;2.83;;;1.00;;
60344;SDS011;46188;52.324;8.032;2023-08-08T11:53:32;3.15;;;0.88;;
60344;SDS011;46188;52.324;8.032;2023-08-08T11:55:59;3.22;;;0.82;;
60344;SDS011;46188;52.324;8.032;2023-08-08T11:58:25;1.70;;;0.65;;
60344;SDS011;46188;52.324;8.032;2023-08-08T12:00:51;4.50;;;1.42;;
60344;SDS011;46188;52.324;8.032;2023-08-08T12:03:19;4.22;;;1.15;;
60344;SDS011;46188;52.324;8.032;2023-08-08T12:05:45;3.08;;;0.90;;
60344;SDS011;46188;52.324;8.032;2023-08-08T12:08:11;4.85;;;1.00;;
60344;SDS011;46188;52.324;8.032;2023-08-08T12:10:37;3.60;;;0.80;;
60344;SDS011;46188;52.324;8.032;2023-08-08T12:13:02;4.78;;;1.80;;
60344;SDS011;46188;52.324;8.032;2023-08-08T12:15:28;1.98;;;0.70;;
60344;SDS011;46188;52.324;8.032;2023-08-08T12:17:58;2.17;;;0.82;;
60344;SDS011;46188;52.324;8.032;2023-08-08T12:20:26;1.75;;;0.90;;
60344;SDS011;46188;52.324;8.032;2023-08-08T12:22:52;1.95;;;0.60;;
60344;SDS011;46188;52.324;8.032;2023-08-08T12:25:17;3.40;;;0.80;;
60344;SDS011;46188;52.324;8.032;2023-08-08T12:27:42;2.17;;;0.80;;
60344;SDS011;46188;52.324;8.032;2023-08-08T12:30:08;2.10;;;1.00;;
60344;SDS011;46188;52.324;8.032;2023-08-08T12:32:34;3.63;;;0.73;;
60344;SDS011;46188;52.324;8.032;2023-08-08T12:34:59;3.38;;;1.23;;
60344;SDS011;46188;52.324;8.032;2023-08-08T12:37:24;2.35;;;0.80;;
60344;SDS011;46188;52.324;8.032;2023-08-08T12:39:50;4.53;;;0.98;;
60344;SDS011;46188;52.324;8.032;2023-08-08T12:42:16;2.92;;;0.82;;
60344;SDS011;46188;52.324;8.032;2023-08-08T12:44:42;2.30;;;1.25;;
60344;SDS011;46188;52.324;8.032;2023-08-08T12:47:07;1.10;;;0.60;;
60344;SDS011;46188;52.324;8.032;2023-08-08T12:49:33;2.07;;;0.73;;
60344;SDS011;46188;52.324;8.032;2023-08-08T12:51:58;1.90;;;0.75;;
60344;SDS011;46188;52.324;8.032;2023-08-08T12:54:23;1.30;;;0.70;;
60344;SDS011;46188;52.324;8.032;2023-08-08T12:56:49;1.15;;;0.50;;
60344;SDS011;46188;52.324;8.032;2023-08-08T12:59:14;3.13;;;0.70;;
60344;SDS011;46188;52.324;8.032;2023-08-08T13:01:39;1.05;;;0.52;;
60344;SDS011;46188;52.324;8.032;2023-08-08T13:04:04;2.08;;;0.70;;
60344;SDS011;46188;52.324;8.032;2023-08-08T13:06:30;1.92;;;0.90;;
60344;SDS011;46188;52.324;8.032;2023-08-08T13:08:56;2.40;;;0.60;;
60344;SDS011;46188;52.324;8.032;2023-08-08T13:11:21;1.38;;;0.60;;
60344;SDS011;46188;52.324;8.032;2023-08-08T13:13:46;1.83;;;0.82;;
60344;SDS011;46188;52.324;8.032;2023-08-08T13:16:12;1.83;;;0.60;;
60344;SDS011;46188;52.324;8.032;2023-08-08T13:18:37;1.00;;;0.60;;
60344;SDS011;46188;52.324;8.032;2023-08-08T13:21:02;1.05;;;0.70;;
60344;SDS011;46188;52.324;8.032;2023-08-08T13:23:28;3.00;;;0.80;;
60344;SDS011;46188;52.324;8.032;2023-08-08T13:25:53;3.25;;;0.75;;
60344;SDS011;46188;52.324;8.032;2023-08-08T13:28:19;2.22;;;0.98;;
60344;SDS011;46188;52.324;8.032;2023-08-08T13:30:44;1.92;;;0.90;;
60344;SDS011;46188;52.324;8.032;2023-08-08T13:33:09;1.67;;;0.75;;
60344;SDS011;46188;52.324;8.032;2023-08-08T13:35:34;3.33;;;1.00;;
60344;SDS011;46188;52.324;8.032;2023-08-08T13:38:00;7.35;;;1.27;;
60344;SDS011;46188;52.324;8.032;2023-08-08T13:40:25;2.95;;;1.15;;
60344;SDS011;46188;52.324;8.032;2023-08-08T13:42:51;3.08;;;1.05;;
60344;SDS011;46188;52.324;8.032;2023-08-08T13:45:19;1.88;;;0.90;;
60344;SDS011;46188;52.324;8.032;2023-08-08T13:47:47;1.42;;;0.98;;
60344;SDS011;46188;52.324;8.032;2023-08-08T13:50:15;3.85;;;1.00;;
60344;SDS011;46188;52.324;8.032;2023-08-08T13:52:41;6.13;;;0.90;;
60344;SDS011;46188;52.324;8.032;2023-08-08T13:55:07;3.65;;;1.73;;
60344;SDS011;46188;52.324;8.032;2023-08-08T13:57:33;3.63;;;1.20;;
60344;SDS011;46188;52.324;8.032;2023-08-08T13:59:59;1.73;;;1.10;;
60344;SDS011;46188;52.324;8.032;2023-08-08T14:02:24;3.08;;;1.30;;
60344;SDS011;46188;52.324;8.032;2023-08-08T14:04:49;1.70;;;1.05;;
60344;SDS011;46188;52.324;8.032;2023-08-08T14:07:15;2.20;;;1.20;;
60344;SDS011;46188;52.324;8.032;2023-08-08T14:09:40;2.40;;;1.25;;
60344;SDS011;46188;52.324;8.032;2023-08-08T14:12:05;1.63;;;1.20;;
60344;SDS011;46188;52.324;8.032;2023-08-08T14:14:31;3.25;;;1.55;;
60344;SDS011;46188;52.324;8.032;2023-08-08T14:16:56;3.72;;;1.30;;
60344;SDS011;46188;52.324;8.032;2023-08-08T14:19:21;3.05;;;1.60;;
60344;SDS011;46188;52.324;8.032;2023-08-08T14:21:47;3.38;;;1.27;;
60344;SDS011;46188;52.324;8.032;2023-08-08T14:24:12;3.17;;;2.08;;
60344;SDS011;46188;52.324;8.032;2023-08-08T14:26:37;2.80;;;1.70;;
60344;SDS011;46188;52.324;8.032;2023-08-08T14:29:03;4.35;;;1.33;;
60344;SDS011;46188;52.324;8.032;2023-08-08T14:31:28;2.72;;;1.80;;
60344;SDS011;46188;52.324;8.032;2023-08-08T14:33:53;3.33;;;1.52;;
60344;SDS011;46188;52.324;8.032;2023-08-08T14:36:18;3.78;;;1.70;;
60344;SDS011;46188;52.324;8.032;2023-08-08T14:38:44;3.15;;;1.50;;
60344;SDS011;46188;52.324;8.032;2023-08-08T14:41:09;5.15;;;2.00;;
60344;SDS011;46188;52.324;8.032;2023-08-08T14:43:34;3.72;;;1.48;;
60344;SDS011;46188;52.324;8.032;2023-08-08T14:45:59;3.70;;;1.85;;
60344;SDS011;46188;52.324;8.032;2023-08-08T14:48:25;4.55;;;1.80;;